sensor_id;sensor_type;location;lat;lon;timestamp;P1;durP1;ratioP1;P2;durP2;ratioP2
4186;SDS011;2107;52.306;10.484;2023-06-24T00:02:03;0.00;;;0.00;;
4186;SDS011;2107;52.306;10.484;2023-06-24T00:04:31;0.00;;;0.00;;
4186;SDS011;2107;52.306;10.484;2023-06-24T00:06:58;0.00;;;0.00;;
4186;SDS011;2107;52.306;10.484;2023-06-24T00:09:25;0.00;;;0.00;;
4186;SDS011;2107;52.306;10.484;2023-06-24T00:11:54;0.00;;;0.00;;
4186;SDS011;2107;52.306;10.484;2023-06-24T00:14:21;0.00;;;0.00;;
4186;SDS011;2107;52.306;10.484;2023-06-24T00:16:49;0.00;;;0.00;;
4186;SDS011;2107;52.306;10.484;2023-06-24T00:19:18;0.00;;;0.00;;
4186;SDS011;2107;52.306;10.484;2023-06-24T00:21:45;0.00;;;0.00;;
4186;SDS011;2107;52.306;10.484;2023-06-24T00:24:12;0.00;;;0.00;;
4186;SDS011;2107;52.306;10.484;2023-06-24T00:26:39;0.00;;;0.00;;
4186;SDS011;2107;52.306;10.484;2023-06-24T00:29:07;0.00;;;0.00;;
4186;SDS011;2107;52.306;10.484;2023-06-24T00:31:34;0.00;;;0.00;;
4186;SDS011;2107;52.306;10.484;2023-06-24T00:34:01;0.00;;;0.00;;
4186;SDS011;2107;52.306;10.484;2023-06-24T00:36:28;0.00;;;0.00;;
4186;SDS011;2107;52.306;10.484;2023-06-24T00:38:57;0.00;;;0.00;;
4186;SDS011;2107;52.306;10.484;2023-06-24T00:41:28;0.00;;;0.00;;
4186;SDS011;2107;52.306;10.484;2023-06-24T00:43:55;0.00;;;0.00;;
4186;SDS011;2107;52.306;10.484;2023-06-24T00:46:24;0.00;;;0.00;;
4186;SDS011;2107;52.306;10.484;2023-06-24T00:48:51;0.00;;;0.00;;
4186;SDS011;2107;52.306;10.484;2023-06-24T00:51:18;0.00;;;0.00;;
4186;SDS011;2107;52.306;10.484;2023-06-24T00:53:46;0.00;;;0.00;;
4186;SDS011;2107;52.306;10.484;2023-06-24T00:56:15;0.00;;;0.00;;
4186;SDS011;2107;52.306;10.484;2023-06-24T00:58:44;0.00;;;0.00;;
4186;SDS011;2107;52.306;10.484;2023-06-24T01:01:12;0.00;;;0.00;;
4186;SDS011;2107;52.306;10.484;2023-06-24T01:03:41;0.00;;;0.00;;
4186;SDS011;2107;52.306;10.484;2023-06-24T01:06:08;0.00;;;0.00;;
4186;SDS011;2107;52.306;10.484;2023-06-24T01:08:35;0.00;;;0.00;;
4186;SDS011;2107;52.306;10.484;2023-06-24T01:11:02;0.00;;;0.00;;
4186;SDS011;2107;52.306;10.484;2023-06-24T01:13:29;0.00;;;0.00;;
4186;SDS011;2107;52.306;10.484;2023-06-24T01:15:56;0.00;;;0.00;;
4186;SDS011;2107;52.306;10.484;2023-06-24T01:18:29;0.00;;;0.00;;
4186;SDS011;2107;52.306;10.484;2023-06-24T01:21:04;0.00;;;0.00;;
4186;SDS011;2107;52.306;10.484;2023-06-24T01:26:51;0.00;;;0.00;;
4186;SDS011;2107;52.306;10.484;2023-06-24T01:29:35;0.00;;;0.00;;
4186;SDS011;2107;52.306;10.484;2023-06-24T01:32:21;0.00;;;0.00;;
4186;SDS011;2107;52.306;10.484;2023-06-24T01:34:55;0.00;;;0.00;;
4186;SDS011;2107;52.306;10.484;2023-06-24T01:37:26;0.00;;;0.00;;
4186;SDS011;2107;52.306;10.484;2023-06-24T01:40:00;0.00;;;0.00;;
4186;SDS011;2107;52.306;10.484;2023-06-24T01:42:37;0.00;;;0.00;;
4186;SDS011;2107;52.306;10.484;2023-06-24T01:45:06;0.00;;;0.00;;
4186;SDS011;2107;52.306;10.484;2023-06-24T01:47:36;0.00;;;0.00;;
4186;SDS011;2107;52.306;10.484;2023-06-24T01:50:07;0.00;;;0.00;;
4186;SDS011;2107;52.306;10.484;2023-06-24T01:52:36;0.00;;;0.00;;
4186;SDS011;2107;52.306;10.484;2023-06-24T01:55:06;0.00;;;0.00;;
4186;SDS011;2107;52.306;10.484;2023-06-24T01:57:35;0.00;;;0.00;;
4186;SDS011;2107;52.306;10.484;2023-06-24T02:00:03;0.00;;;0.00;;
4186;SDS011;2107;52.306;10.484;2023-06-24T02:02:32;0.00;;;0.00;;
4186;SDS011;2107;52.306;10.484;2023-06-24T02:05:02;0.00;;;0.00;;
4186;SDS011;2107;52.306;10.484;2023-06-24T02:07:32;0.00;;;0.00;;
4186;SDS011;2107;52.306;10.484;2023-06-24T02:10:00;0.00;;;0.00;;
4186;SDS011;2107;52.306;10.484;2023-06-24T02:12:29;0.00;;;0.00;;
4186;SDS011;2107;52.306;10.484;2023-06-24T02:14:56;0.00;;;0.00;;
4186;SDS011;2107;52.306;10.484;2023-06-24T02:17:25;0.00;;;0.00;;
4186;SDS011;2107;52.306;10.484;2023-06-24T02:19:54;0.00;;;0.00;;
4186;SDS011;2107;52.306;10.484;2023-06-24T02:22:23;0.00;;;0.00;;
4186;SDS011;2107;52.306;10.484;2023-06-24T02:24:51;0.00;;;0.00;;
4186;SDS011;2107;52.306;10.484;2023-06-24T02:27:19;0.00;;;0.00;;
4186;SDS011;2107;52.306;10.484;2023-06-24T02:29:47;0.00;;;0.00;;
4186;SDS011;2107;52.306;10.484;2023-06-24T02:32:14;0.00;;;0.00;;
4186;SDS011;2107;52.306;10.484;2023-06-24T02:34:41;0.00;;;0.00;;
4186;SDS011;2107;52.306;10.484;2023-06-24T02:37:08;0.00;;;0.00;;
4186;SDS011;2107;52.306;10.484;2023-06-24T02:39:36;0.00;;;0.00;;
4186;SDS011;2107;52.306;10.484;2023-06-24T02:42:09;0.00;;;0.00;;
4186;SDS011;2107;52.306;10.484;2023-06-24T02:44:36;0.00;;;0.00;;
4186;SDS011;2107;52.306;10.484;2023-06-24T02:47:04;0.00;;;0.00;;
4186;SDS011;2107;52.306;10.484;2023-06-24T02:49:33;0.00;;;0.00;;
4186;SDS011;2107;52.306;10.484;2023-06-24T02:52:03;0.00;;;0.00;;
4186;SDS011;2107;52.306;10.484;2023-06-24T02:54:30;0.00;;;0.00;;
4186;SDS011;2107;52.306;10.484;2023-06-24T02:56:59;0.00;;;0.00;;
4186;SDS011;2107;52.306;10.484;2023-06-24T02:59:26;0.00;;;0.00;;
4186;SDS011;2107;52.306;10.484;2023-06-24T03:01:53;0.00;;;0.00;;
4186;SDS011;2107;52.306;10.484;2023-06-24T03:04:20;0.00;;;0.00;;
4186;SDS011;2107;52.306;10.484;2023-06-24T03:06:47;0.00;;;0.00;;
4186;SDS011;2107;52.306;10.484;2023-06-24T03:09:16;0.00;;;0.00;;
4186;SDS011;2107;52.306;10.484;2023-06-24T03:11:43;0.00;;;0.00;;
4186;SDS011;2107;52.306;10.484;2023-06-24T03:14:12;0.00;;;0.00;;
4186;SDS011;2107;52.306;10.484;2023-06-24T03:16:38;0.00;;;0.00;;
4186;SDS011;2107;52.306;10.484;2023-06-24T03:19:05;0.00;;;0.00;;
4186;SDS011;2107;52.306;10.484;2023-06-24T03:21:32;0.00;;;0.00;;
4186;SDS011;2107;52.306;10.484;2023-06-24T03:23:59;0.00;;;0.00;;
4186;SDS011;2107;52.306;10.484;2023-06-24T03:26:30;0.00;;;0.00;;
4186;SDS011;2107;52.306;10.484;2023-06-24T03:28:58;0.00;;;0.00;;
4186;SDS011;2107;52.306;10.484;2023-06-24T03:31:26;0.00;;;0.00;;
4186;SDS011;2107;52.306;10.484;2023-06-24T03:33:53;0.00;;;0.00;;
4186;SDS011;2107;52.306;10.484;2023-06-24T03:36:20;0.00;;;0.00;;
4186;SDS011;2107;52.306;10.484;2023-06-24T03:38:47;0.00;;;0.00;;
4186;SDS011;2107;52.306;10.484;2023-06-24T03:41:13;0.00;;;0.00;;
4186;SDS011;2107;52.306;10.484;2023-06-24T03:43:40;0.00;;;0.00;;
4186;SDS011;2107;52.306;10.484;2023-06-24T03:46:08;0.00;;;0.00;;
4186;SDS011;2107;52.306;10.484;2023-06-24T03:48:36;0.00;;;0.00;;
4186;SDS011;2107;52.306;10.484;2023-06-24T03:51:04;0.00;;;0.00;;
4186;SDS011;2107;52.306;10.484;2023-06-24T03:53:30;0.00;;;0.00;;
4186;SDS011;2107;52.306;10.484;2023-06-24T03:55:58;0.00;;;0.00;;
4186;SDS011;2107;52.306;10.484;2023-06-24T03:58:26;0.00;;;0.00;;
4186;SDS011;2107;52.306;10.484;2023-06-24T04:00:53;0.00;;;0.00;;
4186;SDS011;2107;52.306;10.484;2023-06-24T04:03:22;0.00;;;0.00;;
4186;SDS011;2107;52.306;10.484;2023-06-24T04:05:52;0.00;;;0.00;;
4186;SDS011;2107;52.306;10.484;2023-06-24T04:08:20;0.00;;;0.00;;
4186;SDS011;2107;52.306;10.484;2023-06-24T04:10:47;0.00;;;0.00;;
4186;SDS011;2107;52.306;10.484;2023-06-24T04:13:14;0.00;;;0.00;;
4186;SDS011;2107;52.306;10.484;2023-06-24T04:15:41;0.00;;;0.00;;
4186;SDS011;2107;52.306;10.484;2023-06-24T04:18:08;0.00;;;0.00;;
4186;SDS011;2107;52.306;10.484;2023-06-24T04:20:34;0.00;;;0.00;;
4186;SDS011;2107;52.306;10.484;2023-06-24T04:23:03;0.00;;;0.00;;
4186;SDS011;2107;52.306;10.484;2023-06-24T04:25:30;0.10;;;0.10;;
4186;SDS011;2107;52.306;10.484;2023-06-24T04:27:57;0.00;;;0.00;;
4186;SDS011;2107;52.306;10.484;2023-06-24T04:30:24;0.10;;;0.10;;
4186;SDS011;2107;52.306;10.484;2023-06-24T04:32:51;0.10;;;0.10;;
4186;SDS011;2107;52.306;10.484;2023-06-24T04:35:18;0.20;;;0.20;;
4186;SDS011;2107;52.306;10.484;2023-06-24T04:37:45;0.20;;;0.20;;
4186;SDS011;2107;52.306;10.484;2023-06-24T04:40:13;0.30;;;0.30;;
4186;SDS011;2107;52.306;10.484;2023-06-24T04:42:40;0.40;;;0.40;;
4186;SDS011;2107;52.306;10.484;2023-06-24T04:45:07;0.60;;;0.60;;
4186;SDS011;2107;52.306;10.484;2023-06-24T04:47:34;0.60;;;0.60;;
4186;SDS011;2107;52.306;10.484;2023-06-24T04:50:01;0.40;;;0.40;;
4186;SDS011;2107;52.306;10.484;2023-06-24T04:52:28;0.30;;;0.30;;
4186;SDS011;2107;52.306;10.484;2023-06-24T04:54:55;0.30;;;0.30;;
4186;SDS011;2107;52.306;10.484;2023-06-24T04:57:27;0.30;;;0.30;;
4186;SDS011;2107;52.306;10.484;2023-06-24T04:59:55;0.30;;;0.30;;
4186;SDS011;2107;52.306;10.484;2023-06-24T05:02:22;0.37;;;0.37;;
4186;SDS011;2107;52.306;10.484;2023-06-24T05:04:49;0.30;;;0.30;;
4186;SDS011;2107;52.306;10.484;2023-06-24T05:07:17;0.30;;;0.30;;
4186;SDS011;2107;52.306;10.484;2023-06-24T05:09:45;0.40;;;0.40;;
4186;SDS011;2107;52.306;10.484;2023-06-24T05:12:13;0.30;;;0.30;;
4186;SDS011;2107;52.306;10.484;2023-06-24T05:14:41;0.30;;;0.30;;
4186;SDS011;2107;52.306;10.484;2023-06-24T05:17:08;0.20;;;0.20;;
4186;SDS011;2107;52.306;10.484;2023-06-24T05:19:35;0.20;;;0.20;;
4186;SDS011;2107;52.306;10.484;2023-06-24T05:22:02;0.20;;;0.20;;
4186;SDS011;2107;52.306;10.484;2023-06-24T05:24:29;0.20;;;0.20;;
4186;SDS011;2107;52.306;10.484;2023-06-24T05:26:56;0.20;;;0.20;;
4186;SDS011;2107;52.306;10.484;2023-06-24T05:29:29;0.20;;;0.20;;
4186;SDS011;2107;52.306;10.484;2023-06-24T05:31:57;0.20;;;0.20;;
4186;SDS011;2107;52.306;10.484;2023-06-24T05:34:24;0.20;;;0.20;;
4186;SDS011;2107;52.306;10.484;2023-06-24T05:36:51;0.20;;;0.20;;
4186;SDS011;2107;52.306;10.484;2023-06-24T05:39:19;0.20;;;0.20;;
4186;SDS011;2107;52.306;10.484;2023-06-24T05:41:46;0.20;;;0.20;;
4186;SDS011;2107;52.306;10.484;2023-06-24T05:44:14;0.20;;;0.20;;
4186;SDS011;2107;52.306;10.484;2023-06-24T05:46:43;0.20;;;0.20;;
4186;SDS011;2107;52.306;10.484;2023-06-24T05:49:11;0.20;;;0.20;;
4186;SDS011;2107;52.306;10.484;2023-06-24T05:51:38;0.20;;;0.20;;
4186;SDS011;2107;52.306;10.484;2023-06-24T05:54:05;0.20;;;0.20;;
4186;SDS011;2107;52.306;10.484;2023-06-24T05:56:32;0.20;;;0.20;;
4186;SDS011;2107;52.306;10.484;2023-06-24T05:59:01;0.20;;;0.20;;
4186;SDS011;2107;52.306;10.484;2023-06-24T06:01:28;0.20;;;0.20;;
4186;SDS011;2107;52.306;10.484;2023-06-24T06:03:55;0.20;;;0.20;;
4186;SDS011;2107;52.306;10.484;2023-06-24T06:06:23;0.20;;;0.20;;
4186;SDS011;2107;52.306;10.484;2023-06-24T06:08:50;0.20;;;0.20;;
4186;SDS011;2107;52.306;10.484;2023-06-24T06:11:16;0.30;;;0.30;;
4186;SDS011;2107;52.306;10.484;2023-06-24T06:13:43;0.30;;;0.30;;
4186;SDS011;2107;52.306;10.484;2023-06-24T06:16:10;0.20;;;0.20;;
4186;SDS011;2107;52.306;10.484;2023-06-24T06:18:37;0.20;;;0.20;;
4186;SDS011;2107;52.306;10.484;2023-06-24T06:21:04;0.20;;;0.20;;
4186;SDS011;2107;52.306;10.484;2023-06-24T06:23:32;0.20;;;0.20;;
4186;SDS011;2107;52.306;10.484;2023-06-24T06:25:59;0.30;;;0.30;;
4186;SDS011;2107;52.306;10.484;2023-06-24T06:28:25;0.30;;;0.30;;
4186;SDS011;2107;52.306;10.484;2023-06-24T06:30:52;0.30;;;0.30;;
4186;SDS011;2107;52.306;10.484;2023-06-24T06:33:19;0.30;;;0.30;;
4186;SDS011;2107;52.306;10.484;2023-06-24T06:35:46;0.23;;;0.23;;
4186;SDS011;2107;52.306;10.484;2023-06-24T06:38:13;0.30;;;0.30;;
4186;SDS011;2107;52.306;10.484;2023-06-24T06:40:41;0.30;;;0.30;;
4186;SDS011;2107;52.306;10.484;2023-06-24T06:43:08;0.30;;;0.30;;
4186;SDS011;2107;52.306;10.484;2023-06-24T06:45:35;0.30;;;0.30;;
4186;SDS011;2107;52.306;10.484;2023-06-24T06:48:02;0.30;;;0.30;;
4186;SDS011;2107;52.306;10.484;2023-06-24T06:50:32;0.20;;;0.20;;
4186;SDS011;2107;52.306;10.484;2023-06-24T06:52:59;0.20;;;0.20;;
4186;SDS011;2107;52.306;10.484;2023-06-24T06:55:26;0.30;;;0.30;;
4186;SDS011;2107;52.306;10.484;2023-06-24T06:57:54;0.20;;;0.20;;
4186;SDS011;2107;52.306;10.484;2023-06-24T07:00:21;0.20;;;0.20;;
4186;SDS011;2107;52.306;10.484;2023-06-24T07:02:48;0.30;;;0.30;;
4186;SDS011;2107;52.306;10.484;2023-06-24T07:05:15;0.30;;;0.30;;
4186;SDS011;2107;52.306;10.484;2023-06-24T07:07:42;0.20;;;0.20;;
4186;SDS011;2107;52.306;10.484;2023-06-24T07:10:10;0.20;;;0.20;;
4186;SDS011;2107;52.306;10.484;2023-06-24T07:12:38;0.20;;;0.20;;
4186;SDS011;2107;52.306;10.484;2023-06-24T07:15:06;0.20;;;0.20;;
4186;SDS011;2107;52.306;10.484;2023-06-24T07:17:34;0.20;;;0.20;;
4186;SDS011;2107;52.306;10.484;2023-06-24T07:20:01;0.20;;;0.20;;
4186;SDS011;2107;52.306;10.484;2023-06-24T07:22:29;0.20;;;0.20;;
4186;SDS011;2107;52.306;10.484;2023-06-24T07:24:56;0.20;;;0.20;;
4186;SDS011;2107;52.306;10.484;2023-06-24T07:27:23;0.20;;;0.20;;
4186;SDS011;2107;52.306;10.484;2023-06-24T07:29:50;0.20;;;0.20;;
4186;SDS011;2107;52.306;10.484;2023-06-24T07:32:18;0.20;;;0.20;;
4186;SDS011;2107;52.306;10.484;2023-06-24T07:34:45;0.20;;;0.20;;
4186;SDS011;2107;52.306;10.484;2023-06-24T07:37:12;0.20;;;0.20;;
4186;SDS011;2107;52.306;10.484;2023-06-24T07:39:39;0.20;;;0.20;;
4186;SDS011;2107;52.306;10.484;2023-06-24T07:42:06;0.30;;;0.30;;
4186;SDS011;2107;52.306;10.484;2023-06-24T07:44:34;0.30;;;0.30;;
4186;SDS011;2107;52.306;10.484;2023-06-24T07:47:01;0.20;;;0.20;;
4186;SDS011;2107;52.306;10.484;2023-06-24T07:49:30;0.20;;;0.20;;
4186;SDS011;2107;52.306;10.484;2023-06-24T07:51:57;0.30;;;0.30;;
4186;SDS011;2107;52.306;10.484;2023-06-24T07:54:24;0.20;;;0.20;;
4186;SDS011;2107;52.306;10.484;2023-06-24T07:56:51;0.30;;;0.30;;
4186;SDS011;2107;52.306;10.484;2023-06-24T07:59:18;0.30;;;0.30;;
4186;SDS011;2107;52.306;10.484;2023-06-24T08:01:45;0.30;;;0.30;;
4186;SDS011;2107;52.306;10.484;2023-06-24T08:04:14;0.30;;;0.30;;
4186;SDS011;2107;52.306;10.484;2023-06-24T08:06:42;0.30;;;0.30;;
4186;SDS011;2107;52.306;10.484;2023-06-24T08:09:10;0.40;;;0.40;;
4186;SDS011;2107;52.306;10.484;2023-06-24T08:11:36;0.30;;;0.30;;
4186;SDS011;2107;52.306;10.484;2023-06-24T08:14:03;0.20;;;0.20;;
4186;SDS011;2107;52.306;10.484;2023-06-24T08:16:30;0.30;;;0.30;;
4186;SDS011;2107;52.306;10.484;2023-06-24T08:18:57;0.23;;;0.23;;
4186;SDS011;2107;52.306;10.484;2023-06-24T08:21:24;0.30;;;0.30;;
4186;SDS011;2107;52.306;10.484;2023-06-24T08:23:52;0.30;;;0.30;;
4186;SDS011;2107;52.306;10.484;2023-06-24T08:26:19;0.20;;;0.20;;
4186;SDS011;2107;52.306;10.484;2023-06-24T08:28:46;0.30;;;0.30;;
4186;SDS011;2107;52.306;10.484;2023-06-24T08:31:14;0.40;;;0.40;;
4186;SDS011;2107;52.306;10.484;2023-06-24T08:33:43;0.30;;;0.30;;
4186;SDS011;2107;52.306;10.484;2023-06-24T08:36:11;0.30;;;0.30;;
4186;SDS011;2107;52.306;10.484;2023-06-24T08:38:38;0.30;;;0.30;;
4186;SDS011;2107;52.306;10.484;2023-06-24T08:41:06;0.40;;;0.40;;
4186;SDS011;2107;52.306;10.484;2023-06-24T08:43:33;0.30;;;0.30;;
4186;SDS011;2107;52.306;10.484;2023-06-24T08:46:00;0.40;;;0.40;;
4186;SDS011;2107;52.306;10.484;2023-06-24T08:48:27;0.30;;;0.30;;
4186;SDS011;2107;52.306;10.484;2023-06-24T08:50:56;0.30;;;0.30;;
4186;SDS011;2107;52.306;10.484;2023-06-24T08:53:27;0.30;;;0.30;;
4186;SDS011;2107;52.306;10.484;2023-06-24T08:55:54;0.20;;;0.20;;
4186;SDS011;2107;52.306;10.484;2023-06-24T08:58:24;0.20;;;0.20;;
4186;SDS011;2107;52.306;10.484;2023-06-24T09:00:52;0.30;;;0.30;;
4186;SDS011;2107;52.306;10.484;2023-06-24T09:03:19;0.30;;;0.30;;
4186;SDS011;2107;52.306;10.484;2023-06-24T09:05:46;0.30;;;0.30;;
4186;SDS011;2107;52.306;10.484;2023-06-24T09:08:16;0.20;;;0.20;;
4186;SDS011;2107;52.306;10.484;2023-06-24T09:10:43;0.20;;;0.20;;
4186;SDS011;2107;52.306;10.484;2023-06-24T09:13:10;0.20;;;0.20;;
4186;SDS011;2107;52.306;10.484;2023-06-24T09:15:38;0.20;;;0.20;;
4186;SDS011;2107;52.306;10.484;2023-06-24T09:18:05;0.20;;;0.20;;
4186;SDS011;2107;52.306;10.484;2023-06-24T09:20:32;0.20;;;0.20;;
4186;SDS011;2107;52.306;10.484;2023-06-24T09:23:04;0.30;;;0.30;;
4186;SDS011;2107;52.306;10.484;2023-06-24T09:25:31;0.20;;;0.20;;
4186;SDS011;2107;52.306;10.484;2023-06-24T09:27:58;0.20;;;0.20;;
4186;SDS011;2107;52.306;10.484;2023-06-24T09:30:25;0.20;;;0.20;;
4186;SDS011;2107;52.306;10.484;2023-06-24T09:32:54;0.20;;;0.20;;
4186;SDS011;2107;52.306;10.484;2023-06-24T09:35:22;0.20;;;0.20;;
4186;SDS011;2107;52.306;10.484;2023-06-24T09:37:50;0.20;;;0.20;;
4186;SDS011;2107;52.306;10.484;2023-06-24T09:40:17;0.20;;;0.20;;
4186;SDS011;2107;52.306;10.484;2023-06-24T09:42:49;0.20;;;0.20;;
4186;SDS011;2107;52.306;10.484;2023-06-24T09:45:21;0.20;;;0.20;;
4186;SDS011;2107;52.306;10.484;2023-06-24T09:47:49;0.30;;;0.30;;
4186;SDS011;2107;52.306;10.484;2023-06-24T09:50:17;0.30;;;0.30;;
4186;SDS011;2107;52.306;10.484;2023-06-24T09:52:45;0.20;;;0.20;;
4186;SDS011;2107;52.306;10.484;2023-06-24T09:55:13;0.20;;;0.20;;
4186;SDS011;2107;52.306;10.484;2023-06-24T09:57:41;0.20;;;0.20;;
4186;SDS011;2107;52.306;10.484;2023-06-24T10:00:12;0.20;;;0.20;;
4186;SDS011;2107;52.306;10.484;2023-06-24T10:02:41;0.30;;;0.30;;
4186;SDS011;2107;52.306;10.484;2023-06-24T10:05:08;0.30;;;0.30;;
4186;SDS011;2107;52.306;10.484;2023-06-24T10:07:37;0.30;;;0.30;;
4186;SDS011;2107;52.306;10.484;2023-06-24T10:10:06;0.30;;;0.30;;
4186;SDS011;2107;52.306;10.484;2023-06-24T10:12:34;0.30;;;0.30;;
4186;SDS011;2107;52.306;10.484;2023-06-24T10:15:02;0.30;;;0.30;;
4186;SDS011;2107;52.306;10.484;2023-06-24T10:17:30;0.30;;;0.30;;
4186;SDS011;2107;52.306;10.484;2023-06-24T10:19:57;0.30;;;0.30;;
4186;SDS011;2107;52.306;10.484;2023-06-24T10:22:24;0.20;;;0.20;;
4186;SDS011;2107;52.306;10.484;2023-06-24T10:24:55;0.30;;;0.30;;
4186;SDS011;2107;52.306;10.484;2023-06-24T10:27:26;0.40;;;0.40;;
4186;SDS011;2107;52.306;10.484;2023-06-24T10:29:57;0.30;;;0.30;;
4186;SDS011;2107;52.306;10.484;2023-06-24T10:32:39;0.30;;;0.30;;
4186;SDS011;2107;52.306;10.484;2023-06-24T10:35:07;0.30;;;0.30;;
4186;SDS011;2107;52.306;10.484;2023-06-24T10:37:53;0.30;;;0.30;;
4186;SDS011;2107;52.306;10.484;2023-06-24T10:40:35;0.33;;;0.33;;
4186;SDS011;2107;52.306;10.484;2023-06-24T10:43:05;0.30;;;0.30;;
4186;SDS011;2107;52.306;10.484;2023-06-24T10:45:52;0.30;;;0.30;;
4186;SDS011;2107;52.306;10.484;2023-06-24T10:48:20;0.30;;;0.30;;
4186;SDS011;2107;52.306;10.484;2023-06-24T10:50:47;0.30;;;0.30;;
4186;SDS011;2107;52.306;10.484;2023-06-24T10:53:15;0.30;;;0.30;;
4186;SDS011;2107;52.306;10.484;2023-06-24T10:55:46;0.20;;;0.20;;
4186;SDS011;2107;52.306;10.484;2023-06-24T10:58:14;0.20;;;0.20;;
4186;SDS011;2107;52.306;10.484;2023-06-24T11:00:42;0.20;;;0.20;;
4186;SDS011;2107;52.306;10.484;2023-06-24T11:03:12;0.20;;;0.20;;
4186;SDS011;2107;52.306;10.484;2023-06-24T11:05:40;0.20;;;0.20;;
4186;SDS011;2107;52.306;10.484;2023-06-24T11:08:07;0.30;;;0.30;;
4186;SDS011;2107;52.306;10.484;2023-06-24T11:10:41;0.40;;;0.40;;
4186;SDS011;2107;52.306;10.484;2023-06-24T11:13:10;0.30;;;0.30;;
4186;SDS011;2107;52.306;10.484;2023-06-24T11:15:38;0.30;;;0.30;;
4186;SDS011;2107;52.306;10.484;2023-06-24T11:18:07;0.30;;;0.30;;
4186;SDS011;2107;52.306;10.484;2023-06-24T11:20:35;0.30;;;0.30;;
4186;SDS011;2107;52.306;10.484;2023-06-24T11:23:06;0.30;;;0.30;;
4186;SDS011;2107;52.306;10.484;2023-06-24T11:25:38;0.30;;;0.30;;
4186;SDS011;2107;52.306;10.484;2023-06-24T11:28:13;0.30;;;0.30;;
4186;SDS011;2107;52.306;10.484;2023-06-24T11:30:40;0.30;;;0.30;;
4186;SDS011;2107;52.306;10.484;2023-06-24T11:33:07;0.40;;;0.40;;
4186;SDS011;2107;52.306;10.484;2023-06-24T11:35:34;0.33;;;0.33;;
4186;SDS011;2107;52.306;10.484;2023-06-24T11:38:02;0.40;;;0.40;;
4186;SDS011;2107;52.306;10.484;2023-06-24T11:40:30;0.30;;;0.30;;
4186;SDS011;2107;52.306;10.484;2023-06-24T11:42:59;0.30;;;0.30;;
4186;SDS011;2107;52.306;10.484;2023-06-24T11:45:28;0.30;;;0.30;;
4186;SDS011;2107;52.306;10.484;2023-06-24T11:48:01;0.40;;;0.40;;
4186;SDS011;2107;52.306;10.484;2023-06-24T11:50:30;0.40;;;0.40;;
4186;SDS011;2107;52.306;10.484;2023-06-24T11:52:57;0.40;;;0.40;;
4186;SDS011;2107;52.306;10.484;2023-06-24T11:55:25;0.30;;;0.30;;
4186;SDS011;2107;52.306;10.484;2023-06-24T11:57:53;0.50;;;0.50;;
4186;SDS011;2107;52.306;10.484;2023-06-24T12:00:22;0.40;;;0.40;;
4186;SDS011;2107;52.306;10.484;2023-06-24T12:02:52;0.30;;;0.30;;
4186;SDS011;2107;52.306;10.484;2023-06-24T12:05:20;0.30;;;0.30;;
4186;SDS011;2107;52.306;10.484;2023-06-24T12:07:51;0.40;;;0.40;;
4186;SDS011;2107;52.306;10.484;2023-06-24T12:10:20;0.43;;;0.43;;
4186;SDS011;2107;52.306;10.484;2023-06-24T12:12:47;0.40;;;0.40;;
4186;SDS011;2107;52.306;10.484;2023-06-24T12:15:14;0.30;;;0.30;;
4186;SDS011;2107;52.306;10.484;2023-06-24T12:17:41;0.37;;;0.37;;
4186;SDS011;2107;52.306;10.484;2023-06-24T12:20:10;0.40;;;0.40;;
4186;SDS011;2107;52.306;10.484;2023-06-24T12:22:38;0.50;;;0.50;;
4186;SDS011;2107;52.306;10.484;2023-06-24T12:25:06;0.40;;;0.40;;
4186;SDS011;2107;52.306;10.484;2023-06-24T12:27:33;0.40;;;0.40;;
4186;SDS011;2107;52.306;10.484;2023-06-24T12:30:01;0.30;;;0.30;;
4186;SDS011;2107;52.306;10.484;2023-06-24T12:32:28;0.50;;;0.50;;
4186;SDS011;2107;52.306;10.484;2023-06-24T12:34:55;0.40;;;0.40;;
4186;SDS011;2107;52.306;10.484;2023-06-24T12:37:23;0.37;;;0.37;;
4186;SDS011;2107;52.306;10.484;2023-06-24T12:39:50;0.50;;;0.50;;
4186;SDS011;2107;52.306;10.484;2023-06-24T12:42:17;0.50;;;0.50;;
4186;SDS011;2107;52.306;10.484;2023-06-24T12:44:44;0.50;;;0.50;;
4186;SDS011;2107;52.306;10.484;2023-06-24T12:47:11;0.50;;;0.50;;
4186;SDS011;2107;52.306;10.484;2023-06-24T12:49:37;0.30;;;0.30;;
4186;SDS011;2107;52.306;10.484;2023-06-24T12:52:04;0.30;;;0.30;;
4186;SDS011;2107;52.306;10.484;2023-06-24T12:54:33;0.50;;;0.50;;
4186;SDS011;2107;52.306;10.484;2023-06-24T12:57:00;0.40;;;0.40;;
4186;SDS011;2107;52.306;10.484;2023-06-24T12:59:27;0.40;;;0.40;;
4186;SDS011;2107;52.306;10.484;2023-06-24T13:01:54;0.30;;;0.30;;
4186;SDS011;2107;52.306;10.484;2023-06-24T13:04:21;0.50;;;0.50;;
4186;SDS011;2107;52.306;10.484;2023-06-24T13:06:49;0.50;;;0.50;;
4186;SDS011;2107;52.306;10.484;2023-06-24T13:09:17;0.60;;;0.60;;
4186;SDS011;2107;52.306;10.484;2023-06-24T13:11:46;0.43;;;0.43;;
4186;SDS011;2107;52.306;10.484;2023-06-24T13:14:13;0.50;;;0.50;;
4186;SDS011;2107;52.306;10.484;2023-06-24T13:16:41;0.50;;;0.50;;
4186;SDS011;2107;52.306;10.484;2023-06-24T13:19:08;0.40;;;0.40;;
4186;SDS011;2107;52.306;10.484;2023-06-24T13:21:35;0.40;;;0.40;;
4186;SDS011;2107;52.306;10.484;2023-06-24T13:24:02;0.33;;;0.33;;
4186;SDS011;2107;52.306;10.484;2023-06-24T13:26:29;0.40;;;0.40;;
4186;SDS011;2107;52.306;10.484;2023-06-24T13:28:57;0.30;;;0.30;;
4186;SDS011;2107;52.306;10.484;2023-06-24T13:31:24;0.40;;;0.40;;
4186;SDS011;2107;52.306;10.484;2023-06-24T13:33:51;0.30;;;0.30;;
4186;SDS011;2107;52.306;10.484;2023-06-24T13:36:29;0.40;;;0.40;;
4186;SDS011;2107;52.306;10.484;2023-06-24T13:38:58;0.40;;;0.40;;
4186;SDS011;2107;52.306;10.484;2023-06-24T13:41:25;0.50;;;0.50;;
4186;SDS011;2107;52.306;10.484;2023-06-24T13:43:54;0.40;;;0.40;;
4186;SDS011;2107;52.306;10.484;2023-06-24T13:46:23;0.50;;;0.50;;
4186;SDS011;2107;52.306;10.484;2023-06-24T13:48:50;0.30;;;0.30;;
4186;SDS011;2107;52.306;10.484;2023-06-24T13:51:17;1.10;;;1.10;;
4186;SDS011;2107;52.306;10.484;2023-06-24T13:53:44;1.20;;;1.20;;
4186;SDS011;2107;52.306;10.484;2023-06-24T13:56:11;1.10;;;1.10;;
4186;SDS011;2107;52.306;10.484;2023-06-24T13:58:38;1.30;;;1.30;;
4186;SDS011;2107;52.306;10.484;2023-06-24T14:01:05;1.20;;;1.20;;
4186;SDS011;2107;52.306;10.484;2023-06-24T14:03:33;1.10;;;1.10;;
4186;SDS011;2107;52.306;10.484;2023-06-24T14:06:00;0.98;;;0.98;;
4186;SDS011;2107;52.306;10.484;2023-06-24T14:08:28;1.00;;;1.00;;
4186;SDS011;2107;52.306;10.484;2023-06-24T14:10:57;0.90;;;0.90;;
4186;SDS011;2107;52.306;10.484;2023-06-24T14:13:24;1.02;;;1.02;;
4186;SDS011;2107;52.306;10.484;2023-06-24T14:15:51;1.90;;;1.90;;
4186;SDS011;2107;52.306;10.484;2023-06-24T14:18:18;1.60;;;1.60;;
4186;SDS011;2107;52.306;10.484;2023-06-24T14:20:47;1.40;;;1.40;;
4186;SDS011;2107;52.306;10.484;2023-06-24T14:23:14;1.38;;;1.38;;
4186;SDS011;2107;52.306;10.484;2023-06-24T14:25:41;1.00;;;1.00;;
4186;SDS011;2107;52.306;10.484;2023-06-24T14:28:08;0.90;;;0.90;;
4186;SDS011;2107;52.306;10.484;2023-06-24T14:30:34;1.17;;;1.17;;
4186;SDS011;2107;52.306;10.484;2023-06-24T14:33:02;0.98;;;0.98;;
4186;SDS011;2107;52.306;10.484;2023-06-24T14:35:29;1.10;;;1.10;;
4186;SDS011;2107;52.306;10.484;2023-06-24T14:37:57;0.90;;;0.90;;
4186;SDS011;2107;52.306;10.484;2023-06-24T14:40:25;1.30;;;1.30;;
4186;SDS011;2107;52.306;10.484;2023-06-24T14:42:52;1.07;;;1.07;;
4186;SDS011;2107;52.306;10.484;2023-06-24T14:45:19;1.20;;;1.20;;
4186;SDS011;2107;52.306;10.484;2023-06-24T14:47:46;1.10;;;1.10;;
4186;SDS011;2107;52.306;10.484;2023-06-24T14:50:13;1.13;;;1.13;;
4186;SDS011;2107;52.306;10.484;2023-06-24T14:52:40;1.70;;;1.70;;
4186;SDS011;2107;52.306;10.484;2023-06-24T14:55:08;1.60;;;1.60;;
4186;SDS011;2107;52.306;10.484;2023-06-24T14:57:35;1.90;;;1.90;;
4186;SDS011;2107;52.306;10.484;2023-06-24T15:00:04;1.42;;;1.42;;
4186;SDS011;2107;52.306;10.484;2023-06-24T15:02:31;1.50;;;1.50;;
4186;SDS011;2107;52.306;10.484;2023-06-24T15:04:58;1.40;;;1.40;;
4186;SDS011;2107;52.306;10.484;2023-06-24T15:07:25;1.23;;;1.23;;
4186;SDS011;2107;52.306;10.484;2023-06-24T15:09:52;1.00;;;1.00;;